aviador You're here:

KAUO Decoded Metar

AUBURN OPELIKA A in AL, USA
Report Time2018-01-17 17:56:00
UTC Time2018-01-17 18:13:40
Flight Rules vfr VFR
Wind330° at 15 kt
W.Decomp.*RWY 36: 13.5 kt HW 6.6 kt LCW
RWY 29: 10.8 kt HW 10.4 kt RCW
W.Rank330° ranks 1
Current wind is above 330° avg. (6.9)
Visibility9999 m
Phenomena:N/A
Clouds:N/A
Expected CloudBase > 3,200 ft AGL from Temp-Dew spread
CeilingNone
Temp-6°C (ISA -19)
Dew Point-14°C (54% RH)
AAT-14.7°C
QNH1031 hPa
Density Alt-2,215 ft
Elevation774 ft
Report Wrong Elevation
Raw Report
METAR KAUO 171756Z AUTO 33015KT 9SM CLR M06/M14 A3046 RMK AO2 SNE53
SLP342 P0000 60000 T10561139 11056 21100 58004 FZRANO=

Extra information for KAUO:More info

Metar Taf Metar & Taf Last 4 Metars F.Rules Stats Wind Profile Meteogram Temp Stats Airport Information Weather charts Add Link Nearby VenuesMetar ALERT Operation Metar Decoded Social comments

AIRNAV info for KAUO